Time;durP1;ratioP1;P1;durP2;ratioP2;P2;SDS_P1;SDS_P2;PMS_P1;PMS_P2;Temp;Humidity;BMP_temperature;BMP_pressure;BME280_temperature;BME280_humidity;BME280_pressure;Samples;Min_cycle;Max_cycle;Signal;HPM_P1;HPM_P2
2023/11/05 00:00:24;;;;;;;;;;;;;;;10.47;70.31;96443.44;1088562;54;1011;-82
2023/11/05 00:01:25;;;;;;;;;;;;;;;10.51;70.06;96447.25;1088421;54;1186;-82
2023/11/05 00:02:34;;;;;;;;;;;;;;;10.52;69.93;96436.38;1088450;54;1079;-81
2023/11/05 00:03:35;;;;;;;;;;;;;;;10.51;69.75;96434.75;1088253;47;956;-81
2023/11/05 00:04:46;;;;;;;;;;;;;;;10.53;69.68;96424.59;1088396;46;1110;-81
2023/11/05 00:05:47;;;;;;;;;;;;;;;10.52;69.80;96427.53;1088363;54;1198;-80
2023/11/05 00:06:50;;;;;;;;;;;;;;;10.56;69.64;96421.47;1088145;54;1532;-81
2023/11/05 00:07:54;;;;;;;;;;;;;;;10.58;69.69;96429.28;1088292;47;1087;-83
2023/11/05 00:08:58;;;;;;;;;;;;;;;10.56;69.64;96418.00;1088494;54;1019;-82
2023/11/05 00:09:59;;;;;;;;;;;;;;;10.57;69.57;96423.09;1088355;47;978;-82
2023/11/05 00:11:06;;;;;;;;;;;;;;;10.59;69.46;96420.19;1088498;47;1362;-82
2023/11/05 00:12:30;;;;;;;;;;;;;;;10.60;69.60;96427.16;1088674;47;1031;-82
2023/11/05 00:13:44;;;;;;;;;;;;;;;10.61;69.64;96415.44;1088974;47;1406;-84
2023/11/05 00:16:11;;;;;;;;;;;;;;;10.61;69.27;96413.59;1088658;47;1014;-83
2023/11/05 00:17:21;;;;;;;;;;;;;;;10.62;69.36;96419.75;1088766;47;1101;-83
2023/11/05 00:18:53;;;;;;;;;;;;;;;10.66;69.45;96415.56;1088651;47;1395;-82
2023/11/05 00:20:22;;;;;;;;;;;;;;;10.66;69.06;96415.56;1088566;54;1047;-83
2023/11/05 00:21:34;;;;;;;;;;;;;;;10.67;69.01;96411.84;1088485;54;1861;-82
2023/11/05 00:22:38;;;;;;;;;;;;;;;10.69;68.90;96409.75;1088746;54;1174;-81
2023/11/05 00:24:12;;;;;;;;;;;;;;;10.70;68.72;96399.88;1088560;54;987;-83
2023/11/05 00:25:30;;;;;;;;;;;;;;;10.65;68.87;96403.25;1088602;54;1062;-82
2023/11/05 00:27:04;;;;;;;;;;;;;;;10.72;68.72;96403.13;1088559;47;1056;-81
2023/11/05 00:28:14;;;;;;;;;;;;;;;10.75;68.46;96391.97;1088720;54;1421;-83
2023/11/05 00:29:30;;;;;;;;;;;;;;;10.70;68.48;96376.63;1088399;47;1489;-79
2023/11/05 00:30:33;;;;;;;;;;;;;;;10.76;67.89;96391.75;1088390;54;1670;-82
2023/11/05 00:31:59;;;;;;;;;;;;;;;10.74;68.41;96380.47;1088709;54;996;-83
2023/11/05 00:33:01;;;;;;;;;;;;;;;10.80;67.97;96388.59;1088247;54;1074;-79
2023/11/05 00:34:05;;;;;;;;;;;;;;;10.79;68.19;96376.28;1087104;47;1159;-80
2023/11/05 00:35:06;;;;;;;;;;;;;;;10.80;68.02;96370.72;1086980;54;997;-80
2023/11/05 00:36:09;;;;;;;;;;;;;;;10.81;67.98;96379.53;1086776;54;1054;-80
2023/11/05 00:37:12;;;;;;;;;;;;;;;10.74;68.18;96366.28;1086424;54;1086;-80
2023/11/05 00:38:13;;;;;;;;;;;;;;;10.80;68.10;96359.19;1086965;47;1230;-80
2023/11/05 00:39:16;;;;;;;;;;;;;;;10.80;67.74;96356.53;1086914;47;1078;-80
2023/11/05 00:40:17;;;;;;;;;;;;;;;10.81;67.95;96363.50;1086846;47;1098;-78
2023/11/05 00:41:21;;;;;;;;;;;;;;;10.85;67.91;96357.44;1086895;47;1880;-80
2023/11/05 00:42:22;;;;;;;;;;;;;;;10.87;67.67;96360.69;1086832;47;1095;-80
2023/11/05 00:43:25;;;;;;;;;;;;;;;10.85;67.82;96362.00;1086844;54;1097;-79
2023/11/05 00:44:28;;;;;;;;;;;;;;;10.84;67.68;96363.03;1086129;47;1176;-80
2023/11/05 00:45:31;;;;;;;;;;;;;;;10.81;67.88;96360.81;1086387;47;1165;-80
2023/11/05 00:46:32;;;;;;;;;;;;;;;10.77;67.72;96358.63;1086185;54;1146;-79
2023/11/05 00:47:35;;;;;;;;;;;;;;;10.80;67.65;96368.03;1086456;54;1149;-79
2023/11/05 00:48:37;;;;;;;;;;;;;;;10.85;67.38;96362.78;1086156;54;1479;-79
2023/11/05 00:49:40;;;;;;;;;;;;;;;10.81;67.43;96360.81;1086312;47;1134;-80
2023/11/05 00:50:41;;;;;;;;;;;;;;;10.82;67.31;96360.56;1085944;47;1034;-80
2023/11/05 00:51:42;;;;;;;;;;;;;;;10.79;67.24;96349.56;1086118;47;1206;-79
2023/11/05 00:52:45;;;;;;;;;;;;;;;10.81;67.29;96352.81;1086119;54;1161;-80
2023/11/05 00:53:46;;;;;;;;;;;;;;;10.84;67.07;96355.00;1086425;54;1176;-81
2023/11/05 00:54:49;;;;;;;;;;;;;;;10.81;67.30;96358.97;1086887;47;1119;-79
2023/11/05 00:55:49;;;;;;;;;;;;;;;10.85;67.18;96359.31;1086250;54;1115;-79
2023/11/05 00:56:53;;;;;;;;;;;;;;;10.89;67.24;96355.09;1086990;47;1169;-79
2023/11/05 00:57:53;;;;;;;;;;;;;;;10.92;67.01;96349.28;1086775;46;1544;-79
2023/11/05 00:58:56;;;;;;;;;;;;;;;10.82;66.73;96346.41;1086711;54;1575;-79
2023/11/05 01:00:00;;;;;;;;;;;;;;;10.87;66.77;96349.19;1087019;54;1186;-80
2023/11/05 01:01:03;;;;;;;;;;;;;;;10.87;66.85;96347.34;1086973;47;1843;-79
2023/11/05 01:02:04;;;;;;;;;;;;;;;10.80;66.71;96345.84;1086679;54;1090;-80
2023/11/05 01:03:07;;;;;;;;;;;;;;;10.84;66.49;96337.13;1086754;47;1118;-80
2023/11/05 01:04:08;;;;;;;;;;;;;;;10.80;66.78;96353.84;1086838;54;1104;-79
2023/11/05 01:05:11;;;;;;;;;;;;;;;10.86;67.05;96344.91;1086754;47;1176;-79
2023/11/05 01:06:12;;;;;;;;;;;;;;;10.85;66.94;96338.75;1086832;46;1150;-80
2023/11/05 01:07:15;;;;;;;;;;;;;;;10.84;66.75;96333.66;1086754;54;1159;-79
2023/11/05 01:08:16;;;;;;;;;;;;;;;10.80;66.92;96332.47;1086690;47;1319;-80
2023/11/05 01:09:19;;;;;;;;;;;;;;;10.83;66.52;96329.34;1088044;47;1135;-82
2023/11/05 01:10:20;;;;;;;;;;;;;;;10.88;66.47;96334.78;1087880;54;983;-80
2023/11/05 01:11:23;;;;;;;;;;;;;;;10.87;66.12;96322.47;1087476;47;1109;-83
2023/11/05 01:12:24;;;;;;;;;;;;;;;10.88;66.29;96326.75;1087641;54;1142;-80
2023/11/05 01:13:28;;;;;;;;;;;;;;;10.93;66.36;96318.84;1087952;54;1158;-81
2023/11/05 01:14:29;;;;;;;;;;;;;;;10.89;66.32;96313.19;1087941;47;1189;-81
2023/11/05 01:15:35;;;;;;;;;;;;;;;10.84;66.14;96312.28;1087775;47;1059;-81
2023/11/05 01:16:48;;;;;;;;;;;;;;;10.89;66.10;96307.84;1087713;46;1050;-81
2023/11/05 01:17:51;;;;;;;;;;;;;;;10.83;66.19;96297.28;1087422;54;1008;-81
2023/11/05 01:18:53;;;;;;;;;;;;;;;10.88;65.96;96294.69;1087919;47;1393;-81
2023/11/05 01:19:54;;;;;;;;;;;;;;;10.90;66.19;96281.91;1087696;54;1133;-80
2023/11/05 01:20:58;;;;;;;;;;;;;;;10.96;66.08;96285.50;1087611;54;1857;-82
2023/11/05 01:21:59;;;;;;;;;;;;;;;10.95;65.77;96284.69;1087666;54;991;-81
2023/11/05 01:23:02;;;;;;;;;;;;;;;10.93;66.08;96287.59;1087715;54;1176;-81
2023/11/05 01:24:04;;;;;;;;;;;;;;;10.91;65.91;96286.22;1087549;54;1409;-81
2023/11/05 01:25:05;;;;;;;;;;;;;;;10.87;65.89;96288.56;1087349;47;1067;-81
2023/11/05 01:26:08;;;;;;;;;;;;;;;10.86;66.19;96281.59;1087683;54;1109;-81
2023/11/05 01:27:10;;;;;;;;;;;;;;;10.88;65.88;96284.84;1087088;54;1103;-80
2023/11/05 01:28:13;;;;;;;;;;;;;;;10.90;65.62;96281.91;1088082;54;1480;-83
2023/11/05 01:29:14;;;;;;;;;;;;;;;10.90;66.15;96280.06;1088790;47;981;-82
2023/11/05 01:30:20;;;;;;;;;;;;;;;10.92;65.74;96272.59;1088801;46;1051;-82
2023/11/05 01:31:23;;;;;;;;;;;;;;;10.82;65.93;96274.28;1088807;54;1133;-82
2023/11/05 01:32:27;;;;;;;;;;;;;;;10.79;66.06;96275.56;1088708;54;889;-82
2023/11/05 01:33:28;;;;;;;;;;;;;;;10.86;65.80;96262.09;1088817;54;995;-83
2023/11/05 01:34:31;;;;;;;;;;;;;;;10.87;65.65;96261.84;1088801;54;953;-83
2023/11/05 01:35:35;;;;;;;;;;;;;;;10.92;65.33;96258.44;1088896;54;976;-83
2023/11/05 01:36:39;;;;;;;;;;;;;;;10.91;65.56;96256.81;1088882;54;963;-83
2023/11/05 01:37:43;;;;;;;;;;;;;;;10.81;65.29;96252.13;1088851;46;916;-82
2023/11/05 01:38:48;;;;;;;;;;;;;;;10.89;65.05;96248.22;1088720;54;1215;-81
2023/11/05 01:39:51;;;;;;;;;;;;;;;10.85;65.36;96252.44;1088692;54;1153;-83
2023/11/05 01:40:55;;;;;;;;;;;;;;;10.89;65.40;96258.91;1088353;47;1011;-82
2023/11/05 01:41:55;;;;;;;;;;;;;;;10.87;64.96;96258.34;1088602;54;1924;-82
2023/11/05 01:42:59;;;;;;;;;;;;;;;10.89;64.99;96251.72;1088395;47;933;-82
2023/11/05 01:44:00;;;;;;;;;;;;;;;10.92;64.71;96258.44;1088446;54;1160;-81
2023/11/05 01:45:03;;;;;;;;;;;;;;;10.85;65.14;96247.09;1088516;54;1137;-82
2023/11/05 01:46:07;;;;;;;;;;;;;;;10.90;64.57;96250.69;1088316;46;1107;-83
2023/11/05 01:47:13;;;;;;;;;;;;;;;10.95;64.61;96249.97;1088180;54;1170;-80
2023/11/05 01:48:14;;;;;;;;;;;;;;;10.96;64.47;96248.88;1088460;54;1372;-81
2023/11/05 01:49:17;;;;;;;;;;;;;;;10.91;64.51;96235.44;1088126;54;1414;-82
2023/11/05 01:50:19;;;;;;;;;;;;;;;10.99;64.25;96235.06;1088455;46;1082;-81
2023/11/05 01:51:22;;;;;;;;;;;;;;;10.96;64.24;96232.84;1088263;47;1201;-81
2023/11/05 01:52:23;;;;;;;;;;;;;;;11.01;64.14;96229.44;1088292;54;1126;-82
2023/11/05 01:53:25;;;;;;;;;;;;;;;11.08;63.94;96230.13;1088374;47;1419;-81
2023/11/05 01:54:29;;;;;;;;;;;;;;;11.07;63.91;96234.66;1086566;47;1083;-80
2023/11/05 01:55:29;;;;;;;;;;;;;;;11.09;64.10;96226.41;1086888;47;1117;-80
2023/11/05 01:56:32;;;;;;;;;;;;;;;11.10;63.77;96213.84;1085974;54;1147;-80
2023/11/05 01:57:35;;;;;;;;;;;;;;;11.12;63.61;96209.88;1086204;54;1152;-80
2023/11/05 01:58:36;;;;;;;;;;;;;;;11.18;63.48;96216.13;1086624;54;1334;-79
2023/11/05 01:59:40;;;;;;;;;;;;;;;11.17;63.49;96209.97;1086143;54;1083;-80
2023/11/05 02:00:41;;;;;;;;;;;;;;;11.16;63.69;96210.19;1085534;54;1185;-80
2023/11/05 02:01:44;;;;;;;;;;;;;;;11.17;63.43;96218.00;1086525;54;1860;-80
2023/11/05 02:02:47;;;;;;;;;;;;;;;11.12;63.31;96214.41;1086291;54;1136;-80
2023/11/05 02:03:51;;;;;;;;;;;;;;;11.18;63.19;96202.75;1085938;47;1106;-79
2023/11/05 02:04:52;;;;;;;;;;;;;;;11.12;63.33;96204.53;1085823;54;1087;-79
2023/11/05 02:05:55;;;;;;;;;;;;;;;11.21;63.10;96204.94;1086199;54;1146;-80
2023/11/05 02:06:55;;;;;;;;;;;;;;;11.12;63.24;96198.38;1086087;54;1065;-79
2023/11/05 02:07:56;;;;;;;;;;;;;;;11.20;63.02;96200.66;1087880;47;1410;-82
2023/11/05 02:08:59;;;;;;;;;;;;;;;11.19;63.25;96196.34;1088529;54;1113;-79
2023/11/05 02:10:00;;;;;;;;;;;;;;;11.23;62.75;96192.16;1087440;46;1350;-79
2023/11/05 02:11:03;;;;;;;;;;;;;;;11.21;62.86;96191.59;1086048;54;1125;-79
2023/11/05 02:12:04;;;;;;;;;;;;;;;11.20;63.09;96181.94;1086432;54;1094;-80
2023/11/05 02:13:08;;;;;;;;;;;;;;;11.22;63.04;96188.66;1086513;47;1089;-80
2023/11/05 02:14:11;;;;;;;;;;;;;;;11.13;62.88;96183.97;1086226;54;1171;-80
2023/11/05 02:15:14;;;;;;;;;;;;;;;11.16;62.94;96180.78;1086305;47;983;-80
2023/11/05 02:16:17;;;;;;;;;;;;;;;11.12;63.21;96182.34;1085832;54;1117;-78
2023/11/05 02:17:23;;;;;;;;;;;;;;;11.12;62.84;96182.34;1086415;54;1157;-80
2023/11/05 02:18:26;;;;;;;;;;;;;;;11.17;62.90;96183.25;1086247;54;1410;-79
2023/11/05 02:19:30;;;;;;;;;;;;;;;11.13;62.85;96183.97;1085835;47;1140;-80
2023/11/05 02:20:30;;;;;;;;;;;;;;;11.15;62.74;96173.81;1086210;54;1151;-81
2023/11/05 02:21:42;;;;;;;;;;;;;;;11.18;62.50;96182.19;1086190;47;1916;-79
2023/11/05 02:22:45;;;;;;;;;;;;;;;11.19;62.90;96178.44;1086381;54;1090;-80
2023/11/05 02:24:02;;;;;;;;;;;;;;;11.18;62.79;96176.03;1086285;54;1415;-80
2023/11/05 02:25:17;;;;;;;;;;;;;;;11.19;62.78;96181.13;1085688;47;1229;-79
2023/11/05 02:26:21;;;;;;;;;;;;;;;11.14;62.70;96175.69;1085495;54;1328;-79
2023/11/05 02:27:25;;;;;;;;;;;;;;;11.16;62.70;96175.44;1085291;47;1086;-79
2023/11/05 02:28:28;;;;;;;;;;;;;;;11.09;62.83;96180.97;1085311;54;1329;-79
2023/11/05 02:29:29;;;;;;;;;;;;;;;11.08;62.61;96176.69;1085898;47;1045;-80
2023/11/05 02:30:32;;;;;;;;;;;;;;;11.12;62.66;96177.78;1085287;46;1185;-79
2023/11/05 02:31:32;;;;;;;;;;;;;;;11.13;62.60;96176.75;1085847;47;1038;-79
2023/11/05 02:32:36;;;;;;;;;;;;;;;11.11;62.54;96167.34;1085833;47;1217;-80
2023/11/05 02:33:40;;;;;;;;;;;;;;;11.13;62.91;96165.25;1085304;54;1439;-80
2023/11/05 02:34:43;;;;;;;;;;;;;;;11.15;62.64;96166.63;1085461;47;1522;-78
2023/11/05 02:35:44;;;;;;;;;;;;;;;11.14;62.58;96169.56;1085959;47;1162;-79
2023/11/05 02:36:47;;;;;;;;;;;;;;;11.16;62.50;96167.44;1085943;47;1059;-80
2023/11/05 02:37:49;;;;;;;;;;;;;;;11.10;62.53;96157.72;1085717;54;1173;-80
2023/11/05 02:38:55;;;;;;;;;;;;;;;11.11;62.52;96157.47;1086042;54;1413;-79
2023/11/05 02:39:55;;;;;;;;;;;;;;;11.15;62.75;96152.44;1086962;46;1112;-82
2023/11/05 02:40:59;;;;;;;;;;;;;;;11.14;62.76;96148.16;1087863;54;1038;-83
2023/11/05 02:41:59;;;;;;;;;;;;;;;11.14;62.60;96154.31;1088098;47;1853;-82
2023/11/05 02:43:03;;;;;;;;;;;;;;;11.12;62.15;96161.75;1087778;47;1125;-81
2023/11/05 02:44:04;;;;;;;;;;;;;;;11.12;62.38;96152.94;1087628;54;1055;-81
2023/11/05 02:45:08;;;;;;;;;;;;;;;11.13;62.37;96151.91;1087807;54;1169;-81
2023/11/05 02:46:08;;;;;;;;;;;;;;;11.11;62.31;96145.97;1087744;54;1078;-82
2023/11/05 02:47:11;;;;;;;;;;;;;;;11.08;62.33;96140.06;1088103;54;1043;-82
2023/11/05 02:48:12;;;;;;;;;;;;;;;11.10;62.46;96147.03;1088002;47;1386;-81
2023/11/05 02:49:15;;;;;;;;;;;;;;;11.12;62.42;96144.94;1087847;47;1622;-82
2023/11/05 02:50:16;;;;;;;;;;;;;;;11.11;62.55;96154.78;1087959;54;1117;-81
2023/11/05 02:51:20;;;;;;;;;;;;;;;11.10;62.60;96141.69;1088339;47;1163;-81
2023/11/05 02:52:21;;;;;;;;;;;;;;;11.12;62.26;96145.72;1087236;54;1202;-81
2023/11/05 02:53:33;;;;;;;;;;;;;;;11.13;62.50;96151.91;1087435;54;1158;-81
2023/11/05 02:54:37;;;;;;;;;;;;;;;11.13;62.21;96147.34;1087634;54;1166;-80
2023/11/05 02:55:45;;;;;;;;;;;;;;;11.14;62.42;96148.16;1087768;54;1095;-80
2023/11/05 02:56:46;;;;;;;;;;;;;;;11.18;62.32;96149.28;1087062;54;1504;-80
2023/11/05 02:57:50;;;;;;;;;;;;;;;11.11;62.34;96146.78;1087195;54;1090;-80
2023/11/05 02:58:50;;;;;;;;;;;;;;;11.20;61.92;96152.53;1086102;54;1486;-80
2023/11/05 02:59:54;;;;;;;;;;;;;;;11.23;61.70;96146.72;1085368;47;1062;-80
2023/11/05 03:00:54;;;;;;;;;;;;;;;11.18;61.91;96146.63;1085229;47;1078;-78
2023/11/05 03:01:58;;;;;;;;;;;;;;;11.24;61.83;96145.66;1085333;54;1842;-79
2023/11/05 03:02:58;;;;;;;;;;;;;;;11.13;61.90;96142.00;1085171;54;1162;-79
2023/11/05 03:04:02;;;;;;;;;;;;;;;11.17;61.88;96131.63;1085397;47;1089;-79
2023/11/05 03:05:03;;;;;;;;;;;;;;;11.25;61.57;96131.22;1084640;54;1400;-80
2023/11/05 03:06:07;;;;;;;;;;;;;;;11.27;61.65;96133.66;1085001;47;1074;-79
2023/11/05 03:07:08;;;;;;;;;;;;;;;11.23;61.59;96134.13;1086334;47;1093;-80
2023/11/05 03:08:12;;;;;;;;;;;;;;;11.28;61.52;96132.59;1086068;46;1221;-80
2023/11/05 03:09:15;;;;;;;;;;;;;;;11.26;61.64;96122.13;1087300;54;1165;-82
2023/11/05 03:10:22;;;;;;;;;;;;;;;11.28;61.62;96122.72;1088126;47;1162;-82
2023/11/05 03:11:22;;;;;;;;;;;;;;;11.30;61.42;96120.59;1088390;47;1062;-81
2023/11/05 03:12:26;;;;;;;;;;;;;;;11.30;61.52;96119.78;1088512;46;995;-82
2023/11/05 03:13:26;;;;;;;;;;;;;;;11.34;61.37;96124.38;1088448;47;991;-81
2023/11/05 03:14:30;;;;;;;;;;;;;;;11.24;61.75;96113.56;1087443;47;1088;-81
2023/11/05 03:15:30;;;;;;;;;;;;;;;11.30;61.12;96117.94;1087166;54;1176;-80
2023/11/05 03:16:34;;;;;;;;;;;;;;;11.28;61.41;96122.72;1087282;54;1166;-81
2023/11/05 03:17:37;;;;;;;;;;;;;;;11.32;61.21;96117.69;1087104;47;1066;-81
2023/11/05 03:18:41;;;;;;;;;;;;;;;11.35;60.97;96111.84;1087178;47;1290;-80
2023/11/05 03:19:42;;;;;;;;;;;;;;;11.36;61.04;96111.59;1087488;47;1095;-80
2023/11/05 03:20:46;;;;;;;;;;;;;;;11.38;61.04;96112.16;1087210;47;1170;-81
2023/11/05 03:21:47;;;;;;;;;;;;;;;11.38;60.88;96100.66;1087459;47;1844;-80
2023/11/05 03:22:48;;;;;;;;;;;;;;;11.39;60.97;96108.44;1087448;47;1129;-82
2023/11/05 03:23:54;;;;;;;;;;;;;;;11.41;60.98;96104.72;1087917;46;1146;-81
2023/11/05 03:24:55;;;;;;;;;;;;;;;11.31;60.91;96113.38;1087240;54;1191;-79
2023/11/05 03:25:58;;;;;;;;;;;;;;;11.37;60.67;96113.22;1086634;47;1076;-81
2023/11/05 03:27:01;;;;;;;;;;;;;;;11.33;60.74;96103.25;1086576;54;1070;-80
2023/11/05 03:28:02;;;;;;;;;;;;;;;11.33;60.83;96109.44;1086775;54;1319;-80
2023/11/05 03:29:05;;;;;;;;;;;;;;;11.39;60.38;96105.75;1086768;47;1051;-80
2023/11/05 03:30:07;;;;;;;;;;;;;;;11.32;60.45;96107.81;1086534;54;1185;-79
2023/11/05 03:31:07;;;;;;;;;;;;;;;11.31;60.46;96105.38;1085343;54;1158;-80
2023/11/05 03:32:20;;;;;;;;;;;;;;;11.40;60.50;96098.53;1085572;47;1139;-79
2023/11/05 03:33:20;;;;;;;;;;;;;;;11.43;60.25;96097.25;1085735;54;1183;-80
2023/11/05 03:34:21;;;;;;;;;;;;;;;11.43;60.41;96097.25;1085867;47;1140;-79
2023/11/05 03:35:24;;;;;;;;;;;;;;;11.46;60.28;96100.25;1086116;54;1120;-80
2023/11/05 03:36:25;;;;;;;;;;;;;;;11.49;60.14;96096.25;1085818;54;1147;-80
2023/11/05 03:37:25;;;;;;;;;;;;;;;11.49;59.97;96096.25;1086772;47;1080;-80
2023/11/05 03:38:29;;;;;;;;;;;;;;;11.45;59.73;96098.63;1087076;54;1465;-81
2023/11/05 03:39:30;;;;;;;;;;;;;;;11.51;59.57;96094.94;1087219;46;1020;-80
2023/11/05 03:40:33;;;;;;;;;;;;;;;11.50;59.38;96093.31;1086848;47;1097;-80
2023/11/05 03:41:36;;;;;;;;;;;;;;;11.57;59.41;96092.34;1086843;54;1145;-80
2023/11/05 03:42:39;;;;;;;;;;;;;;;11.59;59.07;96100.91;1087079;54;1875;-80
2023/11/05 03:43:42;;;;;;;;;;;;;;;11.59;59.46;96090.22;1087921;54;1106;-82
2023/11/05 03:44:46;;;;;;;;;;;;;;;11.56;59.28;96080.84;1087529;47;1169;-81
2023/11/05 03:45:46;;;;;;;;;;;;;;;11.60;59.16;96083.81;1086983;47;1189;-80
2023/11/05 03:46:49;;;;;;;;;;;;;;;11.64;59.02;96082.28;1086894;54;1149;-79
2023/11/05 03:47:50;;;;;;;;;;;;;;;11.62;59.22;96082.50;1086902;54;1130;-79
2023/11/05 03:48:51;;;;;;;;;;;;;;;11.63;59.17;96083.34;1086937;54;1372;-81
2023/11/05 03:49:55;;;;;;;;;;;;;;;11.66;58.80;96085.53;1087158;47;1189;-81
2023/11/05 03:50:56;;;;;;;;;;;;;;;11.66;59.19;96080.97;1087397;47;1167;-81
2023/11/05 03:51:59;;;;;;;;;;;;;;;11.63;58.77;96084.13;1087437;47;1091;-80
2023/11/05 03:53:02;;;;;;;;;;;;;;;11.65;58.72;96083.91;1087432;54;1161;-81
2023/11/05 03:54:04;;;;;;;;;;;;;;;11.68;58.72;96073.50;1087582;47;1117;-81
2023/11/05 03:55:07;;;;;;;;;;;;;;;11.71;58.71;96073.00;1087556;47;912;-80
2023/11/05 03:56:09;;;;;;;;;;;;;;;11.67;58.60;96066.53;1087526;54;1072;-81
2023/11/05 03:57:15;;;;;;;;;;;;;;;11.69;58.30;96066.28;1086403;47;1142;-81
2023/11/05 03:58:15;;;;;;;;;;;;;;;11.71;58.28;96072.19;1086247;47;1188;-81
2023/11/05 03:59:19;;;;;;;;;;;;;;;11.68;58.52;96072.69;1086859;54;1133;-81
2023/11/05 04:00:19;;;;;;;;;;;;;;;11.71;58.34;96073.00;1087065;54;1054;-80
2023/11/05 04:01:23;;;;;;;;;;;;;;;11.69;58.50;96072.44;1086603;47;1716;-80
2023/11/05 04:02:23;;;;;;;;;;;;;;;11.67;58.38;96071.88;1086259;54;1873;-80
2023/11/05 04:03:26;;;;;;;;;;;;;;;11.68;58.25;96073.50;1085769;54;1122;-80
2023/11/05 04:04:27;;;;;;;;;;;;;;;11.68;58.13;96076.19;1086246;54;1163;-80
2023/11/05 04:05:28;;;;;;;;;;;;;;;11.64;58.16;96075.03;1086000;47;1151;-80
2023/11/05 04:06:31;;;;;;;;;;;;;;;11.68;58.04;96070.84;1086131;54;1069;-80
2023/11/05 04:07:32;;;;;;;;;;;;;;;11.69;58.11;96068.94;1085974;47;1118;-80
2023/11/05 04:08:35;;;;;;;;;;;;;;;11.68;58.08;96067.34;1086084;54;1439;-79
2023/11/05 04:09:35;;;;;;;;;;;;;;;11.67;58.14;96066.53;1086478;47;1174;-81
2023/11/05 04:10:39;;;;;;;;;;;;;;;11.67;58.24;96063.84;1087112;54;1157;-79
2023/11/05 04:11:39;;;;;;;;;;;;;;;11.65;57.98;96065.19;1087083;47;1589;-80
2023/11/05 04:12:45;;;;;;;;;;;;;;;11.66;57.94;96072.16;1087189;47;1277;-79
2023/11/05 04:13:46;;;;;;;;;;;;;;;11.64;57.95;96064.34;1084790;54;1203;-79
2023/11/05 04:14:49;;;;;;;;;;;;;;;11.66;57.61;96064.91;1085234;54;1173;-79
2023/11/05 04:15:50;;;;;;;;;;;;;;;11.68;57.64;96061.97;1085136;47;1121;-79
2023/11/05 04:16:54;;;;;;;;;;;;;;;11.68;57.65;96068.16;1085157;47;1166;-79
2023/11/05 04:17:55;;;;;;;;;;;;;;;11.69;57.62;96060.94;1085489;54;1065;-80
2023/11/05 04:18:58;;;;;;;;;;;;;;;11.68;57.58;96054.78;1085740;47;1413;-80
2023/11/05 04:19:59;;;;;;;;;;;;;;;11.71;57.46;96050.78;1085607;47;1507;-80
2023/11/05 04:21:02;;;;;;;;;;;;;;;11.71;57.20;96058.81;1085666;47;1083;-80
2023/11/05 04:22:03;;;;;;;;;;;;;;;11.73;57.21;96063.91;1085974;54;1896;-80
2023/11/05 04:23:06;;;;;;;;;;;;;;;11.78;57.11;96055.97;1085949;47;1063;-81
2023/11/05 04:24:07;;;;;;;;;;;;;;;11.82;57.34;96057.06;1084916;47;1165;-79
2023/11/05 04:25:11;;;;;;;;;;;;;;;11.78;57.03;96056.75;1084922;47;1169;-79
2023/11/05 04:26:13;;;;;;;;;;;;;;;11.83;57.03;96058.69;1085297;47;1054;-79
2023/11/05 04:27:16;;;;;;;;;;;;;;;11.78;57.47;96069.34;1085227;47;1071;-79
2023/11/05 04:28:20;;;;;;;;;;;;;;;11.79;57.11;96073.63;1084867;47;1323;-78
2023/11/05 04:29:23;;;;;;;;;;;;;;;11.80;56.93;96062.66;1084710;54;1044;-79
2023/11/05 04:30:24;;;;;;;;;;;;;;;11.83;56.80;96058.69;1084513;54;1055;-79
2023/11/05 04:31:28;;;;;;;;;;;;;;;11.80;56.69;96059.19;1084574;47;1654;-78
2023/11/05 04:32:28;;;;;;;;;;;;;;;11.85;56.67;96061.91;1084531;47;1150;-79
2023/11/05 04:33:29;;;;;;;;;;;;;;;11.91;56.66;96057.44;1085044;54;1519;-79
2023/11/05 04:34:32;;;;;;;;;;;;;;;11.85;56.72;96059.25;1084647;47;1190;-79
2023/11/05 04:35:33;;;;;;;;;;;;;;;11.88;56.51;96056.06;1084810;54;1065;-78
2023/11/05 04:36:40;;;;;;;;;;;;;;;11.92;56.55;96059.06;1085050;47;1189;-80
2023/11/05 04:37:41;;;;;;;;;;;;;;;11.94;56.36;96062.31;1084738;47;1148;-79
2023/11/05 04:38:44;;;;;;;;;;;;;;;11.90;56.37;96055.81;1085344;54;2020;-80
2023/11/05 04:39:45;;;;;;;;;;;;;;;11.97;55.95;96059.97;1085767;47;1058;-79
2023/11/05 04:40:48;;;;;;;;;;;;;;;11.99;55.91;96060.53;1085947;54;1110;-80
2023/11/05 04:41:48;;;;;;;;;;;;;;;11.96;56.36;96063.66;1085197;47;1293;-79
2023/11/05 04:42:52;;;;;;;;;;;;;;;12.00;56.17;96062.09;1084909;47;1875;-80
2023/11/05 04:43:55;;;;;;;;;;;;;;;12.02;56.08;96054.66;1085619;54;1047;-80
2023/11/05 04:44:58;;;;;;;;;;;;;;;12.01;56.04;96061.06;1085306;47;1145;-79
2023/11/05 04:45:59;;;;;;;;;;;;;;;12.01;56.06;96058.38;1085432;47;1192;-81
2023/11/05 04:47:02;;;;;;;;;;;;;;;12.02;56.10;96070.69;1086056;54;1190;-80
2023/11/05 04:48:03;;;;;;;;;;;;;;;12.02;56.02;96061.88;1085809;54;1349;-81
2023/11/05 04:49:06;;;;;;;;;;;;;;;12.06;55.95;96059.50;1085862;54;1182;-80
2023/11/05 04:50:08;;;;;;;;;;;;;;;12.07;55.88;96063.81;1084956;47;1141;-80
2023/11/05 04:51:12;;;;;;;;;;;;;;;12.08;55.66;96060.84;1085156;47;1185;-79
2023/11/05 04:52:13;;;;;;;;;;;;;;;12.05;55.97;96066.72;1086257;47;1579;-81
2023/11/05 04:53:16;;;;;;;;;;;;;;;12.09;55.36;96056.34;1085172;47;1151;-79
2023/11/05 04:54:16;;;;;;;;;;;;;;;12.08;55.45;96054.72;1085488;47;1076;-79
2023/11/05 04:55:17;;;;;;;;;;;;;;;12.10;55.48;96063.28;1085962;47;1046;-79
2023/11/05 04:56:21;;;;;;;;;;;;;;;12.15;55.50;96050.75;1085250;47;1185;-79
2023/11/05 04:57:21;;;;;;;;;;;;;;;12.10;55.78;96064.09;1085355;47;1260;-79
2023/11/05 04:58:25;;;;;;;;;;;;;;;12.15;55.56;96060.66;1085154;47;1386;-80
2023/11/05 04:59:32;;;;;;;;;;;;;;;12.18;55.49;96060.19;1086718;47;984;-81
2023/11/05 05:00:38;;;;;;;;;;;;;;;12.10;55.58;96063.28;1086343;47;1173;-79
2023/11/05 05:01:40;;;;;;;;;;;;;;;12.15;55.56;96060.66;1085925;47;1095;-81
2023/11/05 05:02:44;;;;;;;;;;;;;;;12.16;55.67;96056.94;1086214;47;1860;-81
2023/11/05 05:03:44;;;;;;;;;;;;;;;12.15;55.12;96061.47;1086434;47;1087;-80
2023/11/05 05:04:45;;;;;;;;;;;;;;;12.11;55.73;96075.59;1086376;47;1197;-79
2023/11/05 05:05:48;;;;;;;;;;;;;;;12.16;55.50;96067.63;1086565;54;1082;-79
2023/11/05 05:06:50;;;;;;;;;;;;;;;12.13;55.59;96065.47;1086713;54;1085;-79
2023/11/05 05:07:53;;;;;;;;;;;;;;;12.18;55.42;96070.88;1085878;47;1164;-80
2023/11/05 05:08:54;;;;;;;;;;;;;;;12.16;55.28;96068.44;1086019;47;1368;-79
2023/11/05 05:09:57;;;;;;;;;;;;;;;12.21;55.43;96067.69;1085728;54;904;-81
2023/11/05 05:11:05;;;;;;;;;;;;;;;12.23;55.36;96068.25;1085968;47;1050;-79
2023/11/05 05:12:09;;;;;;;;;;;;;;;12.27;55.44;96074.72;1086301;54;1139;-80
2023/11/05 05:13:09;;;;;;;;;;;;;;;12.22;55.24;96073.88;1086047;54;1180;-80
2023/11/05 05:14:13;;;;;;;;;;;;;;;12.23;55.21;96068.25;1086746;47;1023;-80
2023/11/05 05:15:16;;;;;;;;;;;;;;;12.26;55.56;96059.72;1086466;47;1160;-80
2023/11/05 05:16:19;;;;;;;;;;;;;;;12.26;55.53;96077.63;1085735;47;1460;-80
2023/11/05 05:17:20;;;;;;;;;;;;;;;12.29;55.33;96075.25;1086049;47;1347;-78
2023/11/05 05:18:23;;;;;;;;;;;;;;;12.23;55.69;96070.91;1086413;47;1322;-79
2023/11/05 05:19:24;;;;;;;;;;;;;;;12.19;55.66;96071.69;1085701;47;1182;-79
2023/11/05 05:20:27;;;;;;;;;;;;;;;12.14;55.90;96070.56;1086083;47;1063;-79
2023/11/05 05:21:28;;;;;;;;;;;;;;;12.20;55.73;96065.25;1085921;47;1120;-80
2023/11/05 05:22:28;;;;;;;;;;;;;;;12.26;55.69;96066.94;1085764;47;1853;-80
2023/11/05 05:23:32;;;;;;;;;;;;;;;12.24;55.91;96075.22;1085946;54;1066;-80
2023/11/05 05:24:33;;;;;;;;;;;;;;;12.22;56.07;96063.94;1086090;47;1031;-80
2023/11/05 05:25:34;;;;;;;;;;;;;;;12.25;55.88;96067.97;1085738;54;1162;-80
2023/11/05 05:26:38;;;;;;;;;;;;;;;12.19;56.00;96067.13;1085717;47;1186;-79
2023/11/05 05:27:39;;;;;;;;;;;;;;;12.19;55.74;96069.00;1085525;47;1500;-79
2023/11/05 05:28:42;;;;;;;;;;;;;;;12.23;55.69;96073.59;1085269;54;1405;-80
2023/11/05 05:29:42;;;;;;;;;;;;;;;12.27;55.71;96072.03;1085157;47;1158;-79
2023/11/05 05:30:48;;;;;;;;;;;;;;;12.29;55.57;96077.94;1085496;47;931;-79
2023/11/05 05:31:49;;;;;;;;;;;;;;;12.30;55.63;96078.75;1085106;47;1528;-80
2023/11/05 05:32:53;;;;;;;;;;;;;;;12.33;55.68;96078.22;1085186;54;1128;-79
2023/11/05 05:33:53;;;;;;;;;;;;;;;12.31;55.92;96067.78;1084782;54;1084;-80
2023/11/05 05:34:57;;;;;;;;;;;;;;;12.29;55.83;96077.94;1085214;54;1099;-79
2023/11/05 05:35:57;;;;;;;;;;;;;;;12.29;56.10;96090.53;1084940;54;1353;-78